Scroll down
FLIGHT INFORMATION
Alaska Airlines

ASA201

At Arrival Gate

KIDA
 KPAE
DATE: 2020-02-01
GATE:  -
GATE DEPARTURE: 16:37
TAKEOFF: 16:46
DATE: 2020-02-02
GATE:  -
LANDING: 18:15
GATE ARRIVAL: 18:24
FLIGHT DATA
Crew: 
Speed: 
458 kts
Altitude: 
39,002 ft
Stage Length: 
502.2 nm
Block Time: 
1.7 hrs
Flight Time: 
1.5 hrs
Fuel Used: 
8,300 lb
Cleared Route: 
TRACK DATA
50,000 ft 1,000 kts
AIRCRAFT INFO AND CUMULATIVE STATS
Aircraft Type: 
B739SSW
Registration: 
SELCAL: 
MSN/LN: 
33679 / 1344
Operator: 
Total Flights: 
14
Total Block Time: 
20 hrs
Total Flight Time: 
16.9 hrs
Total Fuel Used: 
142,026 lb
DATALINK LOG | Newest first | Current as of: 2022-09-28 23:22:32
LABEL SEQUENCE CONTENT Dn/Up
QA370016:37 15▼ Dn
5U4435KIDA 011311Z 0113/0212 36006KT P6SM SCT007 OVC035 FM011800 20012KT P6SM FEW025 SCT150 FM020400 20010KT P6SM SCT015 SCT150▲ Up
5U4435KPAE 011123Z 0112/0212 19017G27KT P6SM -RA SCT010 BKN020 OVC050 TEMPO 0112/0116 4SM -RA BR OVC010 FM011600 21020G30KT P6SM -SHRA BKN022 OVC035 FM012100 30012G20KT P6SM -SHRA BKN025 BKN040 FM020600 15006KT P6SM SCT025 BKN050▲ Up
5S3126KIDA KPAE▼ Dn
2U4435KIDA 011602Z 36006KT 7SM FEW002 BKN034 M04/M04 A3042 RMK AO2 T10441044▲ Up
2U4435KPAE 011620Z VRB06G15KT 1 3/4SM -RA BR BKN007 BKN055 OVC120 07/06 A2995 RMK AO2 P0005 T00720061▲ Up
2S3117KIDA KPAE▼ Dn
A34132CLEARED TO KPAE VIA DNJ J20 PDT DEVYN2. SQUAWK 1732.▲ Up
A33843CLEARED TO KPAE VIA DNJ J20 PDT DEVYN2. SQUAWK 5547.▲ Up
Q03732[LINK ACK]▲ Up
Q02737[LINK TEST]▼ Dn


AIRCRAFT HISTORY
FLIGHT DATE FLIGHT NO. ORIGIN DESTINATION CLEARED ROUTE BLOCK TIME FLIGHT TIME FUEL USED PILOT
2020-11-13ASA901KSEA KBUR KSEA NEVJO SUMMA SMIGE SUNBE FRA REBRG MMTLY CRUUE EEAZY HIHWY MAIDD PEPRZ HEVVY ROKKR ZEPPE IVINS MIKEI RW082.1 hrs1.9 hrs11,576 lbDan Downs
2020-07-14ASA1202KPDX KSEA KPDX COUGA KRIEG KSEA0.7 hrs0.6 hrs4,211 lbMichael Roth
2020-05-23ASA522KPAE KPDX 0.9 hrs0.6 hrs5,096 lbCharles Harris
2020-02-01ASA201KIDA KPAE 1.7 hrs1.5 hrs8,300 lbJhan Jensen
2020-01-23ASA327KRNO KIDA 1.7 hrs1.6 hrs9,136 lbJhan Jensen
2020-01-15ASA99KEGE KRNO 1.9 hrs1.6 hrs9,698 lbJhan Jensen
2020-01-11ASA182KJAC KEGE 1.2 hrs0.9 hrs6,449 lbJhan Jensen
2020-01-03ASA68KGPI KJAC 1.4 hrs1 hrs5,452 lbJhan Jensen
2020-01-03ASA67CYYC KGPI 0.8 hrs0.7 hrs4,803 lbJhan Jensen
2019-11-24ASA1124KLAX CYYC 1.1 hrs0.8 hrs41,517 lbRandall Smith
2019-11-24ASA9722KSAN KLAX 0.6 hrs0.4 hrs3,440 lbKyle Weber
2019-11-24ASA135KSLC KSAN 1.6 hrs1.5 hrs8,755 lbJhan Jensen
2019-11-16ASA172KSEA KSLC 1.8 hrs1.6 hrs9,842 lbJhan Jensen
2019-11-07ASA955KLAS KSEA 2.5 hrs2.3 hrs13,750 lbAllan Burek